createdAt,value
2019-03-05T00:01:34.179Z,5.10
2019-03-05T00:04:03.696Z,4.80
2019-03-05T00:06:33.321Z,5.00
2019-03-05T00:09:02.877Z,6.25
2019-03-05T00:11:32.896Z,4.78
2019-03-05T00:14:02.448Z,6.05
2019-03-05T00:16:32.009Z,5.45
2019-03-05T00:19:01.540Z,4.90
2019-03-05T00:21:31.231Z,4.62
2019-03-05T00:24:37.430Z,4.80
2019-03-05T00:27:06.937Z,4.37
2019-03-05T00:30:03.296Z,4.62
2019-03-05T00:32:34.132Z,3.47
2019-03-05T00:35:23.748Z,3.90
2019-03-05T00:38:15.295Z,4.72
2019-03-05T00:40:58.678Z,3.47
2019-03-05T00:43:59.556Z,4.62
2019-03-05T00:47:02.069Z,4.35
2019-03-05T00:50:12.040Z,4.00
2019-03-05T00:53:12.590Z,3.95
2019-03-05T00:56:29.014Z,3.92
2019-03-05T00:59:36.991Z,3.00
2019-03-05T01:02:33.852Z,5.03
2019-03-05T01:05:46.215Z,2.85
2019-03-05T01:08:15.725Z,3.50
2019-03-05T01:10:45.357Z,3.00
2019-03-05T01:13:15.751Z,3.87
2019-03-05T01:15:45.410Z,3.50
2019-03-05T01:18:15.104Z,2.42
2019-03-05T01:21:05.463Z,4.00
2019-03-05T01:23:35.103Z,3.67
2019-03-05T01:26:04.876Z,3.70
2019-03-05T01:28:34.518Z,3.55
2019-03-05T01:31:23.585Z,3.87
2019-03-05T01:34:01.905Z,3.05
2019-03-05T01:36:34.787Z,3.80
2019-03-05T01:39:26.832Z,2.50
2019-03-05T01:41:58.649Z,3.70
2019-03-05T01:44:29.455Z,3.05
2019-03-05T01:46:59.917Z,3.95
2019-03-05T01:49:31.599Z,3.40
2019-03-05T01:52:01.084Z,4.03
2019-03-05T01:54:31.123Z,3.45
2019-03-05T01:57:00.779Z,3.87
2019-03-05T01:59:30.343Z,3.12
2019-03-05T02:02:00.022Z,3.60
2019-03-05T02:04:29.656Z,3.87
2019-03-05T02:06:59.234Z,3.00
2019-03-05T02:09:28.956Z,3.05
2019-03-05T02:11:58.664Z,3.30
2019-03-05T02:14:28.366Z,3.47
2019-03-05T02:16:57.941Z,3.90
2019-03-05T02:19:41.882Z,3.12
2019-03-05T02:22:23.988Z,3.77
2019-03-05T02:25:02.941Z,4.30
2019-03-05T02:28:16.458Z,4.75
2019-03-05T02:31:51.269Z,2.55
2019-03-05T02:35:01.792Z,4.10
2019-03-05T02:37:44.074Z,3.20
2019-03-05T02:40:41.252Z,2.95
2019-03-05T02:43:37.224Z,3.90
2019-03-05T02:46:56.907Z,3.20
2019-03-05T02:49:46.383Z,3.10
2019-03-05T02:53:00.233Z,3.25
2019-03-05T02:56:12.881Z,3.15
2019-03-05T02:58:40.744Z,2.50
2019-03-05T03:01:19.487Z,2.40
2019-03-05T03:03:52.257Z,3.33
2019-03-05T03:06:25.007Z,3.00
2019-03-05T03:09:27.761Z,3.27
2019-03-05T03:11:57.281Z,2.42
2019-03-05T03:14:26.742Z,1.05
2019-03-05T03:16:56.255Z,1.27
2019-03-05T03:19:25.678Z,3.70
2019-03-05T03:21:55.276Z,0.80
2019-03-05T03:24:24.733Z,2.90
2019-03-05T03:26:54.195Z,1.45
2019-03-05T03:29:24.282Z,0.65
2019-03-05T03:31:53.879Z,1.02
2019-03-05T03:34:23.321Z,0.60
2019-03-05T03:36:52.821Z,0.98
2019-03-05T03:39:22.423Z,1.75
2019-03-05T03:41:51.941Z,0.88
2019-03-05T03:44:21.520Z,1.02
2019-03-05T03:46:51.128Z,0.57
2019-03-05T03:49:20.754Z,0.60
2019-03-05T03:51:53.958Z,1.02
2019-03-05T03:54:23.520Z,1.10
2019-03-05T03:56:53.065Z,1.32
2019-03-05T03:59:22.605Z,1.25
2019-03-05T04:01:52.186Z,1.00
2019-03-05T04:04:21.973Z,1.55
2019-03-05T04:06:51.792Z,1.47
2019-03-05T04:09:21.348Z,1.10
2019-03-05T04:11:50.885Z,1.55
2019-03-05T04:14:20.429Z,1.00
2019-03-05T04:16:49.901Z,1.55
2019-03-05T04:19:24.037Z,1.40
2019-03-05T04:21:53.661Z,1.35
2019-03-05T04:24:23.127Z,1.45
2019-03-05T04:26:52.592Z,1.85
2019-03-05T04:29:22.137Z,3.75
2019-03-05T04:31:51.668Z,2.35
2019-03-05T04:34:21.292Z,2.90
2019-03-05T04:36:50.917Z,1.77
2019-03-05T04:39:20.494Z,2.10
2019-03-05T04:41:49.998Z,2.60
2019-03-05T04:44:27.637Z,1.92
2019-03-05T04:46:57.210Z,2.37
2019-03-05T04:49:48.729Z,2.58
2019-03-05T04:52:21.333Z,2.62
2019-03-05T04:54:51.260Z,2.15
2019-03-05T04:57:20.764Z,2.62
2019-03-05T04:59:50.306Z,2.17
2019-03-05T05:02:19.781Z,3.08
2019-03-05T05:04:49.357Z,2.70
2019-03-05T05:07:19.099Z,2.62
2019-03-05T05:09:48.580Z,2.65
2019-03-05T05:12:21.865Z,2.52
2019-03-05T05:14:51.414Z,2.77
2019-03-05T05:17:20.863Z,3.02
2019-03-05T05:19:50.472Z,2.62
2019-03-05T05:22:19.980Z,3.17
2019-03-05T05:24:49.506Z,2.05
2019-03-05T05:27:19.055Z,2.15
2019-03-05T05:29:48.539Z,1.80
2019-03-05T05:32:18.473Z,2.30
2019-03-05T05:34:48.022Z,2.30
2019-03-05T05:37:17.831Z,2.70
2019-03-05T05:40:42.707Z,1.50
2019-03-05T05:43:15.030Z,2.47
2019-03-05T05:45:51.922Z,2.20
2019-03-05T05:48:21.535Z,2.30
2019-03-05T05:50:51.095Z,2.50
2019-03-05T05:53:20.855Z,3.00
2019-03-05T05:55:50.420Z,2.08
2019-03-05T05:58:19.920Z,2.05
2019-03-05T06:00:51.765Z,2.65
2019-03-05T06:03:21.361Z,3.05
2019-03-05T06:05:51.172Z,3.00
2019-03-05T06:08:23.741Z,2.83
2019-03-05T06:10:53.413Z,3.65
2019-03-05T06:13:23.062Z,2.10
2019-03-05T06:15:52.733Z,3.12
2019-03-05T06:18:22.258Z,3.00
2019-03-05T06:20:51.853Z,3.02
2019-03-05T06:23:23.112Z,2.60
2019-03-05T06:25:52.617Z,2.90
2019-03-05T06:28:22.467Z,2.15
2019-03-05T06:30:52.000Z,2.35
2019-03-05T06:33:22.015Z,3.08
2019-03-05T06:35:51.617Z,2.77
2019-03-05T06:38:21.272Z,3.98
2019-03-05T06:40:50.752Z,2.60
2019-03-05T06:43:20.589Z,3.47
2019-03-05T06:45:50.157Z,3.40
2019-03-05T06:48:19.817Z,2.77
2019-03-05T06:50:49.292Z,3.45
2019-03-05T06:53:19.144Z,2.50
2019-03-05T06:55:48.670Z,3.70
2019-03-05T06:58:18.141Z,2.10
2019-03-05T07:00:47.736Z,2.72
2019-03-05T07:03:17.266Z,3.02
2019-03-05T07:06:22.430Z,2.85
2019-03-05T07:08:57.230Z,3.02
2019-03-05T07:11:49.086Z,2.95
2019-03-05T07:14:40.322Z,3.05
2019-03-05T07:17:37.809Z,3.30
2019-03-05T07:20:32.175Z,3.70
2019-03-05T07:23:31.884Z,3.37
2019-03-05T07:26:01.461Z,3.98
2019-03-05T07:28:31.015Z,3.27
2019-03-05T07:31:00.607Z,3.40
2019-03-05T07:33:30.137Z,3.62
2019-03-05T07:35:59.728Z,3.17
2019-03-05T07:38:29.341Z,3.95
2019-03-05T07:41:02.000Z,3.35
2019-03-05T07:43:36.474Z,3.35
2019-03-05T07:46:02.806Z,3.05
2019-03-05T07:48:32.346Z,3.45
2019-03-05T07:51:02.039Z,3.67
2019-03-05T07:53:31.518Z,3.00
2019-03-05T07:56:01.097Z,2.80
2019-03-05T07:58:30.715Z,2.65
2019-03-05T08:01:00.292Z,3.30
2019-03-05T08:03:29.976Z,3.40
2019-03-05T08:05:59.586Z,3.20
2019-03-05T08:09:07.106Z,3.60
2019-03-05T08:11:36.583Z,2.83
2019-03-05T08:14:40.570Z,2.40
2019-03-05T08:17:10.087Z,3.15
2019-03-05T08:19:39.664Z,2.50
2019-03-05T08:22:09.761Z,3.62
2019-03-05T08:24:39.319Z,2.52
2019-03-05T08:27:10.658Z,3.08
2019-03-05T08:29:41.391Z,1.85
2019-03-05T08:32:11.547Z,3.33
2019-03-05T08:34:41.265Z,2.35
2019-03-05T08:37:13.340Z,2.20
2019-03-05T08:39:42.261Z,2.60
2019-03-05T08:42:12.383Z,2.20
2019-03-05T08:44:50.013Z,2.72
2019-03-05T08:47:13.254Z,1.77
2019-03-05T08:49:42.753Z,2.37
2019-03-05T08:52:13.518Z,2.10
2019-03-05T08:54:45.359Z,2.12
2019-03-05T08:57:14.245Z,2.30
2019-03-05T08:59:44.187Z,2.05
2019-03-05T09:02:13.811Z,1.67
2019-03-05T09:04:43.371Z,2.12
2019-03-05T09:07:13.104Z,2.05
2019-03-05T09:09:42.676Z,2.17
2019-03-05T09:12:12.385Z,2.35
2019-03-05T09:14:42.138Z,1.62
2019-03-05T09:17:11.807Z,1.70
2019-03-05T09:19:41.284Z,1.95
2019-03-05T09:22:11.503Z,1.87
2019-03-05T09:24:40.961Z,1.85
2019-03-05T09:27:10.574Z,1.27
2019-03-05T09:29:40.288Z,1.80
2019-03-05T09:32:09.768Z,1.35
2019-03-05T09:34:39.330Z,2.17
2019-03-05T09:37:09.009Z,1.22
2019-03-05T09:39:38.459Z,1.72
2019-03-05T09:42:07.974Z,2.12
2019-03-05T09:44:37.480Z,2.10
2019-03-05T09:47:07.068Z,2.12
2019-03-05T09:49:38.666Z,2.15
2019-03-05T09:52:08.229Z,2.30
2019-03-05T09:54:37.788Z,2.25
2019-03-05T09:57:07.342Z,3.70
2019-03-05T09:59:36.828Z,2.90
2019-03-05T10:02:07.293Z,2.92
2019-03-05T10:04:36.890Z,3.20
2019-03-05T10:07:06.742Z,3.20
2019-03-05T10:09:36.405Z,3.70
2019-03-05T10:12:09.704Z,3.62
2019-03-05T10:14:39.313Z,4.28
2019-03-05T10:17:08.835Z,3.70
2019-03-05T10:19:38.583Z,4.70
2019-03-05T10:22:08.463Z,4.22
2019-03-05T10:24:38.058Z,4.45
2019-03-05T10:27:07.753Z,4.37
2019-03-05T10:29:37.351Z,4.25
2019-03-05T10:32:07.182Z,3.42
2019-03-05T10:34:36.788Z,3.55
2019-03-05T10:37:12.595Z,3.60
2019-03-05T10:39:37.823Z,4.15
2019-03-05T10:42:07.604Z,3.40
2019-03-05T10:44:37.165Z,4.78
2019-03-05T10:47:09.087Z,3.45
2019-03-05T10:49:38.968Z,4.42
2019-03-05T10:52:08.672Z,3.72
2019-03-05T10:54:38.247Z,4.33
2019-03-05T10:57:08.372Z,4.10
2019-03-05T10:59:38.001Z,2.95
2019-03-05T11:02:07.719Z,3.87
2019-03-05T11:04:45.721Z,3.52
2019-03-05T11:07:11.687Z,3.52
2019-03-05T11:09:41.482Z,3.10
2019-03-05T11:12:11.150Z,3.10
2019-03-05T11:14:41.447Z,3.35
2019-03-05T11:17:11.170Z,3.22
2019-03-05T11:19:40.822Z,2.15
2019-03-05T11:22:11.731Z,3.10
2019-03-05T11:24:41.472Z,2.42
2019-03-05T11:27:11.302Z,2.67
2019-03-05T11:29:41.683Z,2.77
2019-03-05T11:32:11.693Z,3.10
2019-03-05T11:34:41.431Z,3.05
2019-03-05T11:37:11.141Z,2.80
2019-03-05T11:39:40.601Z,2.75
2019-03-05T11:42:11.138Z,3.08
2019-03-05T11:44:40.777Z,2.67
2019-03-05T11:47:12.237Z,2.85
2019-03-05T11:49:41.893Z,3.15
2019-03-05T11:52:11.419Z,2.50
2019-03-05T11:54:40.968Z,2.58
2019-03-05T11:57:10.502Z,2.90
2019-03-05T11:59:39.931Z,2.83
2019-03-05T12:02:21.060Z,2.72
2019-03-05T12:04:41.510Z,3.10
2019-03-05T12:07:11.232Z,3.25
2019-03-05T12:09:40.778Z,3.72
2019-03-05T12:12:10.363Z,2.47
2019-03-05T12:14:40.081Z,2.60
2019-03-05T12:17:09.521Z,3.27
2019-03-05T12:19:39.028Z,2.55
2019-03-05T12:22:08.707Z,3.08
2019-03-05T12:24:38.204Z,2.72
2019-03-05T12:27:07.791Z,2.80
2019-03-05T12:29:37.301Z,2.85
2019-03-05T12:32:06.843Z,2.37
2019-03-05T12:34:36.822Z,2.70
2019-03-05T12:37:06.358Z,1.80
2019-03-05T12:39:36.972Z,1.82
2019-03-05T12:42:06.605Z,2.30
2019-03-05T12:44:36.188Z,2.60
2019-03-05T12:47:05.903Z,2.20
2019-03-05T12:49:35.355Z,3.30
2019-03-05T12:52:04.874Z,3.08
2019-03-05T12:54:34.381Z,3.12
2019-03-05T12:57:03.909Z,2.72
2019-03-05T12:59:33.483Z,2.58
2019-03-05T13:02:03.599Z,1.98
2019-03-05T13:04:33.190Z,3.67
2019-03-05T13:07:02.671Z,3.60
2019-03-05T13:09:32.373Z,3.15
2019-03-05T13:12:03.137Z,2.30
2019-03-05T13:14:32.976Z,3.35
2019-03-05T13:17:02.660Z,3.30
2019-03-05T13:19:32.539Z,2.83
2019-03-05T13:22:02.031Z,2.95
2019-03-05T13:24:31.791Z,3.33
2019-03-05T13:27:01.359Z,2.65
2019-03-05T13:29:31.389Z,3.72
2019-03-05T13:32:01.011Z,3.58
2019-03-05T13:34:30.632Z,3.40
2019-03-05T13:37:00.994Z,4.20
2019-03-05T13:39:30.770Z,3.27
2019-03-05T13:42:00.209Z,3.00
2019-03-05T13:44:45.729Z,2.20
2019-03-05T13:47:15.324Z,3.10
2019-03-05T13:50:20.475Z,3.55
2019-03-05T13:53:22.369Z,3.30
2019-03-05T13:56:28.015Z,3.12
2019-03-05T13:59:28.825Z,2.98
2019-03-05T14:01:58.570Z,2.75
2019-03-05T14:04:53.296Z,3.05
2019-03-05T14:07:51.919Z,2.62
2019-03-05T14:10:21.750Z,3.15
2019-03-05T14:12:51.372Z,3.22
2019-03-05T14:15:21.668Z,3.10
2019-03-05T14:17:51.238Z,3.05
2019-03-05T14:20:31.497Z,3.00
2019-03-05T14:22:51.923Z,2.62
2019-03-05T14:25:21.445Z,2.85
2019-03-05T14:27:50.946Z,3.15
2019-03-05T14:30:21.101Z,2.85
2019-03-05T14:32:51.470Z,3.72
2019-03-05T14:35:23.775Z,2.40
2019-03-05T14:37:54.699Z,2.60
2019-03-05T14:40:33.826Z,2.55
2019-03-05T14:43:05.700Z,2.65
2019-03-05T14:45:36.849Z,3.22
2019-03-05T14:48:06.530Z,3.35
2019-03-05T14:50:37.479Z,2.90
2019-03-05T14:53:07.219Z,2.58
2019-03-05T14:55:37.961Z,2.90
2019-03-05T14:58:07.554Z,2.65
2019-03-05T15:00:37.242Z,3.00
2019-03-05T15:03:06.796Z,3.35
2019-03-05T15:05:36.864Z,2.75
2019-03-05T15:08:06.431Z,3.25
2019-03-05T15:10:36.223Z,2.30
2019-03-05T15:13:15.726Z,3.10
2019-03-05T15:15:40.183Z,3.72
2019-03-05T15:18:09.731Z,2.30
2019-03-05T15:20:39.889Z,3.00
2019-03-05T15:23:13.426Z,3.60
2019-03-05T15:25:42.981Z,2.98
2019-03-05T15:28:12.459Z,2.33
2019-03-05T15:30:42.356Z,3.00
2019-03-05T15:33:11.944Z,3.10
2019-03-05T15:35:41.654Z,4.33
2019-03-05T15:38:11.162Z,3.00
2019-03-05T15:40:41.347Z,2.00
2019-03-05T15:43:10.984Z,2.75
2019-03-05T15:45:40.543Z,2.42
2019-03-05T15:48:10.152Z,2.22
2019-03-05T15:50:39.628Z,2.40
2019-03-05T15:53:09.128Z,2.35
2019-03-05T15:55:38.595Z,2.30
2019-03-05T15:58:13.646Z,1.95
2019-03-05T16:00:44.022Z,2.77
2019-03-05T16:03:13.710Z,2.47
2019-03-05T16:05:43.703Z,2.98
2019-03-05T16:08:13.436Z,2.72
2019-03-05T16:10:43.242Z,3.12
2019-03-05T16:13:15.254Z,2.40
2019-03-05T16:15:45.454Z,2.60
2019-03-05T16:18:15.503Z,3.05
2019-03-05T16:20:45.247Z,3.25
2019-03-05T16:23:15.003Z,3.30
2019-03-05T16:25:46.306Z,2.50
2019-03-05T16:28:16.639Z,2.90
2019-03-05T16:31:03.899Z,2.25
2019-03-05T16:33:51.071Z,2.40
2019-03-05T16:36:57.760Z,3.30
2019-03-05T16:39:49.206Z,2.12
2019-03-05T16:42:41.945Z,1.85
2019-03-05T16:45:29.024Z,2.77
2019-03-05T16:48:35.749Z,2.75
2019-03-05T16:51:26.971Z,2.70
2019-03-05T16:54:23.938Z,3.70
2019-03-05T16:57:08.224Z,2.25
2019-03-05T16:59:48.381Z,2.80
2019-03-05T17:02:36.226Z,2.27
2019-03-05T17:05:32.855Z,2.77
2019-03-05T17:08:27.163Z,2.77
2019-03-05T17:11:18.521Z,2.47
2019-03-05T17:13:48.055Z,3.20
2019-03-05T17:16:17.727Z,2.20
2019-03-05T17:18:47.349Z,2.80
2019-03-05T17:21:16.884Z,3.47
2019-03-05T17:23:46.376Z,3.15
2019-03-05T17:26:15.954Z,3.00
2019-03-05T17:28:45.870Z,3.30
2019-03-05T17:31:15.429Z,3.98
2019-03-05T17:33:45.074Z,2.90
2019-03-05T17:36:14.567Z,4.15
2019-03-05T17:38:44.245Z,3.85
2019-03-05T17:41:13.943Z,3.58
2019-03-05T17:43:43.760Z,2.80
2019-03-05T17:46:14.193Z,2.92
2019-03-05T17:48:43.787Z,3.33
2019-03-05T17:51:13.386Z,3.22
2019-03-05T17:53:42.909Z,3.45
2019-03-05T17:56:12.540Z,3.50
2019-03-05T17:58:42.774Z,6.47
2019-03-05T18:01:12.250Z,4.62
2019-03-05T18:03:41.778Z,3.70
2019-03-05T18:06:11.551Z,5.10
2019-03-05T18:08:51.071Z,3.80
2019-03-05T18:11:20.609Z,4.28
2019-03-05T18:13:50.468Z,4.30
2019-03-05T18:16:20.131Z,3.80
2019-03-05T18:18:49.610Z,4.40
2019-03-05T18:21:19.090Z,3.85
2019-03-05T18:23:48.550Z,5.20
2019-03-05T18:26:18.050Z,3.83
2019-03-05T18:28:47.704Z,2.85
2019-03-05T18:31:18.081Z,3.42
2019-03-05T18:33:47.540Z,4.00
2019-03-05T18:36:17.115Z,3.55
2019-03-05T18:38:46.606Z,4.53
2019-03-05T18:41:16.278Z,3.37
2019-03-05T18:43:45.900Z,4.10
2019-03-05T18:46:15.558Z,3.10
2019-03-05T18:48:46.143Z,4.65
2019-03-05T18:51:15.785Z,3.40
2019-03-05T18:53:45.936Z,4.42
2019-03-05T18:56:15.516Z,4.00
2019-03-05T18:58:45.059Z,3.55
2019-03-05T19:01:15.957Z,4.42
2019-03-05T19:03:46.559Z,3.35
2019-03-05T19:06:16.711Z,5.08
2019-03-05T19:08:46.284Z,4.47
2019-03-05T19:11:16.130Z,4.50
2019-03-05T19:13:45.739Z,4.08
2019-03-05T19:16:15.280Z,3.20
2019-03-05T19:18:44.926Z,3.22
2019-03-05T19:21:14.601Z,3.37
2019-03-05T19:23:44.118Z,4.15
2019-03-05T19:26:14.648Z,3.35
2019-03-05T19:28:44.281Z,4.53
2019-03-05T19:31:13.742Z,4.10
2019-03-05T19:33:43.829Z,5.37
2019-03-05T19:36:16.269Z,4.37
2019-03-05T19:38:45.759Z,6.67
2019-03-05T19:41:15.279Z,6.78
2019-03-05T19:43:44.962Z,5.70
2019-03-05T19:46:14.797Z,7.28
2019-03-05T19:48:44.273Z,5.62
2019-03-05T19:51:13.838Z,5.80
2019-03-05T19:53:43.392Z,4.65
2019-03-05T19:56:13.005Z,5.75
2019-03-05T19:58:42.557Z,4.42
2019-03-05T20:01:18.065Z,6.37
2019-03-05T20:03:47.517Z,4.90
2019-03-05T20:06:18.496Z,4.55
2019-03-05T20:08:50.352Z,3.80
2019-03-05T20:11:19.904Z,4.40
2019-03-05T20:13:49.440Z,4.25
2019-03-05T20:16:20.340Z,5.25
2019-03-05T20:18:49.897Z,4.45
2019-03-05T20:21:19.488Z,5.05
2019-03-05T20:23:48.951Z,4.60
2019-03-05T20:26:18.743Z,5.22
2019-03-05T20:28:48.358Z,4.33
2019-03-05T20:31:18.394Z,5.78
2019-03-05T20:33:47.920Z,5.47
2019-03-05T20:36:17.448Z,4.00
2019-03-05T20:38:46.936Z,4.28
2019-03-05T20:41:17.148Z,3.58
2019-03-05T20:43:46.987Z,2.95
2019-03-05T20:46:26.379Z,3.27
2019-03-05T20:48:56.082Z,2.98
2019-03-05T20:51:25.846Z,3.52
2019-03-05T20:53:56.015Z,3.25
2019-03-05T20:56:26.080Z,3.67
2019-03-05T20:58:55.660Z,3.35
2019-03-05T21:01:25.121Z,3.70
2019-03-05T21:03:55.594Z,3.30
2019-03-05T21:06:26.286Z,3.55
2019-03-05T21:08:55.748Z,3.80
2019-03-05T21:11:26.442Z,3.83
2019-03-05T21:13:58.283Z,3.77
2019-03-05T21:16:28.048Z,3.55
2019-03-05T21:18:58.227Z,3.50
2019-03-05T21:21:27.917Z,3.08
2019-03-05T21:23:57.551Z,3.45
2019-03-05T21:26:27.106Z,3.27
2019-03-05T21:28:56.996Z,3.20
2019-03-05T21:31:26.514Z,2.40
2019-03-05T21:33:56.093Z,2.30
2019-03-05T21:36:25.696Z,2.58
2019-03-05T21:38:55.372Z,4.17
2019-03-05T21:41:25.030Z,3.90
2019-03-05T21:43:54.570Z,3.92
2019-03-05T21:46:24.076Z,4.67
2019-03-05T21:48:53.546Z,5.30
2019-03-05T21:51:23.108Z,3.98
2019-03-05T21:53:52.629Z,5.60
2019-03-05T21:56:22.244Z,3.90
2019-03-05T21:58:51.850Z,4.45
2019-03-05T22:01:21.377Z,4.35
2019-03-05T22:03:51.166Z,4.03
2019-03-05T22:06:20.715Z,3.20
2019-03-05T22:08:50.216Z,3.75
2019-03-05T22:11:19.864Z,3.22
2019-03-05T22:13:49.495Z,3.83
2019-03-05T22:16:19.048Z,3.17
2019-03-05T22:18:48.735Z,3.75
2019-03-05T22:21:18.337Z,3.45
2019-03-05T22:23:48.718Z,3.70
2019-03-05T22:26:18.297Z,3.02
2019-03-05T22:28:47.750Z,3.67
2019-03-05T22:31:17.287Z,3.50
2019-03-05T22:33:46.710Z,3.50
2019-03-05T22:36:16.401Z,2.50
2019-03-05T22:38:46.002Z,4.20
2019-03-05T22:41:15.705Z,3.20
2019-03-05T22:43:45.512Z,2.52
2019-03-05T22:46:15.080Z,2.83
2019-03-05T22:48:44.586Z,2.62
2019-03-05T22:51:14.537Z,3.70
2019-03-05T22:53:44.169Z,3.52
2019-03-05T22:56:14.777Z,2.42
2019-03-05T22:58:44.274Z,2.25
2019-03-05T23:01:19.585Z,3.25
2019-03-05T23:03:53.496Z,2.58
2019-03-05T23:06:23.239Z,2.83
2019-03-05T23:08:52.846Z,2.95
2019-03-05T23:11:22.303Z,3.35
2019-03-05T23:13:52.747Z,3.20
2019-03-05T23:16:23.713Z,2.55
2019-03-05T23:18:53.217Z,3.58
2019-03-05T23:21:22.932Z,3.37
2019-03-05T23:23:52.760Z,3.25
2019-03-05T23:26:22.253Z,2.85
2019-03-05T23:28:51.768Z,2.90
2019-03-05T23:31:21.308Z,2.70
2019-03-05T23:33:50.835Z,2.62
2019-03-05T23:36:20.470Z,3.05
2019-03-05T23:38:50.230Z,2.37
2019-03-05T23:41:20.842Z,3.00
2019-03-05T23:43:50.339Z,2.65
2019-03-05T23:46:19.899Z,2.60
2019-03-05T23:48:49.508Z,3.35
2019-03-05T23:51:19.295Z,3.02
2019-03-05T23:53:48.761Z,3.08
2019-03-05T23:56:18.343Z,5.25
2019-03-05T23:58:47.843Z,3.75
